sensor_id;sensor_type;location;lat;lon;timestamp;pressure;altitude;pressure_sealevel;temperature;humidity
36454;BME280;22478;51.740;-1.314;2023-04-27T00:01:40;100533.79;;;4.40;83.76
36454;BME280;22478;51.740;-1.314;2023-04-27T00:04:07;100537.09;;;2.21;91.96
36454;BME280;22478;51.740;-1.314;2023-04-27T00:06:34;100535.40;;;3.53;86.12
36454;BME280;22478;51.740;-1.314;2023-04-27T00:09:01;100526.78;;;4.57;83.87
36454;BME280;22478;51.740;-1.314;2023-04-27T00:11:28;100523.59;;;5.15;81.77
36454;BME280;22478;51.740;-1.314;2023-04-27T00:13:56;100519.33;;;5.46;82.34
36454;BME280;22478;51.740;-1.314;2023-04-27T00:16:23;100516.84;;;5.63;83.19
36454;BME280;22478;51.740;-1.314;2023-04-27T00:18:51;100512.21;;;5.11;81.53
36454;BME280;22478;51.740;-1.314;2023-04-27T00:21:18;100509.00;;;5.18;81.61
36454;BME280;22478;51.740;-1.314;2023-04-27T00:23:46;100504.61;;;4.33;87.68
36454;BME280;22478;51.740;-1.314;2023-04-27T00:26:13;100502.94;;;4.83;82.29
36454;BME280;22478;51.740;-1.314;2023-04-27T00:28:40;100500.02;;;5.98;80.52
36454;BME280;22478;51.740;-1.314;2023-04-27T00:31:08;100491.07;;;4.65;82.50
36454;BME280;22478;51.740;-1.314;2023-04-27T00:33:35;100489.13;;;4.40;82.33
36454;BME280;22478;51.740;-1.314;2023-04-27T00:36:03;100484.84;;;5.15;80.81
36454;BME280;22478;51.740;-1.314;2023-04-27T00:38:30;100476.35;;;4.74;82.61
36454;BME280;22478;51.740;-1.314;2023-04-27T00:41:01;100473.87;;;4.49;84.99
36454;BME280;22478;51.740;-1.314;2023-04-27T00:43:28;100473.64;;;3.84;86.34
36454;BME280;22478;51.740;-1.314;2023-04-27T00:45:56;100469.99;;;3.30;87.04
36454;BME280;22478;51.740;-1.314;2023-04-27T00:48:23;100469.01;;;3.16;87.70
36454;BME280;22478;51.740;-1.314;2023-04-27T00:50:51;100455.71;;;4.94;84.14
36454;BME280;22478;51.740;-1.314;2023-04-27T00:53:19;100450.59;;;4.01;84.72
36454;BME280;22478;51.740;-1.314;2023-04-27T00:55:47;100448.31;;;3.54;90.61
36454;BME280;22478;51.740;-1.314;2023-04-27T00:58:14;100444.04;;;3.62;90.67
36454;BME280;22478;51.740;-1.314;2023-04-27T01:00:41;100448.55;;;2.13;94.55
36454;BME280;22478;51.740;-1.314;2023-04-27T01:03:09;100450.92;;;2.78;93.00
36454;BME280;22478;51.740;-1.314;2023-04-27T01:05:36;100448.95;;;4.13;88.33
36454;BME280;22478;51.740;-1.314;2023-04-27T01:08:04;100447.23;;;4.47;83.71
36454;BME280;22478;51.740;-1.314;2023-04-27T01:10:31;100448.30;;;4.01;87.59
36454;BME280;22478;51.740;-1.314;2023-04-27T01:12:59;100451.96;;;2.91;92.62
36454;BME280;22478;51.740;-1.314;2023-04-27T01:15:26;100453.04;;;3.97;92.32
36454;BME280;22478;51.740;-1.314;2023-04-27T01:17:57;100457.19;;;3.87;93.62
36454;BME280;22478;51.740;-1.314;2023-04-27T01:20:25;100460.84;;;3.58;93.56
36454;BME280;22478;51.740;-1.314;2023-04-27T01:22:52;100466.30;;;2.71;96.56
36454;BME280;22478;51.740;-1.314;2023-04-27T01:25:19;100464.05;;;3.44;93.94
36454;BME280;22478;51.740;-1.314;2023-04-27T01:27:47;100462.18;;;2.60;99.12
36454;BME280;22478;51.740;-1.314;2023-04-27T01:30:15;100469.05;;;3.47;98.66
36454;BME280;22478;51.740;-1.314;2023-04-27T01:32:42;100469.75;;;2.66;98.19
36454;BME280;22478;51.740;-1.314;2023-04-27T01:35:09;100473.01;;;1.93;99.94
36454;BME280;22478;51.740;-1.314;2023-04-27T01:37:37;100475.07;;;2.34;100.00
36454;BME280;22478;51.740;-1.314;2023-04-27T01:40:05;100477.11;;;2.31;100.00
36454;BME280;22478;51.740;-1.314;2023-04-27T01:42:33;100490.39;;;1.19;100.00
36454;BME280;22478;51.740;-1.314;2023-04-27T01:45:01;100494.27;;;1.92;100.00
36454;BME280;22478;51.740;-1.314;2023-04-27T01:47:28;100495.34;;;3.03;100.00
36454;BME280;22478;51.740;-1.314;2023-04-27T01:49:55;100497.57;;;2.24;100.00
36454;BME280;22478;51.740;-1.314;2023-04-27T01:52:22;100496.35;;;2.09;100.00
36454;BME280;22478;51.740;-1.314;2023-04-27T01:54:49;100493.17;;;3.53;95.68
36454;BME280;22478;51.740;-1.314;2023-04-27T01:57:16;100497.62;;;3.51;98.70
36454;BME280;22478;51.740;-1.314;2023-04-27T01:59:44;100503.33;;;1.19;100.00
36454;BME280;22478;51.740;-1.314;2023-04-27T02:02:10;100496.68;;;3.26;91.52
36454;BME280;22478;51.740;-1.314;2023-04-27T02:04:37;100490.24;;;4.25;85.76
36454;BME280;22478;51.740;-1.314;2023-04-27T02:07:05;100490.37;;;2.51;91.76
36454;BME280;22478;51.740;-1.314;2023-04-27T02:09:33;100484.10;;;2.61;96.51
36454;BME280;22478;51.740;-1.314;2023-04-27T02:12:00;100479.50;;;1.63;100.00
36454;BME280;22478;51.740;-1.314;2023-04-27T02:14:27;100475.34;;;2.67;97.40
36454;BME280;22478;51.740;-1.314;2023-04-27T02:16:54;100472.46;;;4.09;91.48
36454;BME280;22478;51.740;-1.314;2023-04-27T02:19:21;100470.70;;;4.00;88.94
36454;BME280;22478;51.740;-1.314;2023-04-27T02:21:49;100472.26;;;3.38;92.30
36454;BME280;22478;51.740;-1.314;2023-04-27T02:24:15;100470.01;;;2.75;96.87
36454;BME280;22478;51.740;-1.314;2023-04-27T02:26:43;100467.16;;;3.63;94.67
36454;BME280;22478;51.740;-1.314;2023-04-27T02:29:11;100462.78;;;3.68;92.40
36454;BME280;22478;51.740;-1.314;2023-04-27T02:31:38;100452.55;;;4.38;89.71
36454;BME280;22478;51.740;-1.314;2023-04-27T02:34:06;100450.30;;;3.91;88.14
36454;BME280;22478;51.740;-1.314;2023-04-27T02:36:33;100449.60;;;4.12;88.73
36454;BME280;22478;51.740;-1.314;2023-04-27T02:39:00;100442.44;;;4.78;86.61
36454;BME280;22478;51.740;-1.314;2023-04-27T02:41:30;100441.73;;;4.83;87.32
36454;BME280;22478;51.740;-1.314;2023-04-27T02:43:58;100441.93;;;3.61;92.45
36454;BME280;22478;51.740;-1.314;2023-04-27T02:46:25;100451.67;;;2.44;96.35
36454;BME280;22478;51.740;-1.314;2023-04-27T02:48:52;100450.16;;;2.75;96.61
36454;BME280;22478;51.740;-1.314;2023-04-27T02:51:19;100453.93;;;2.70;95.91
36454;BME280;22478;51.740;-1.314;2023-04-27T02:53:47;100458.83;;;2.22;100.00
36454;BME280;22478;51.740;-1.314;2023-04-27T02:56:14;100460.87;;;1.85;100.00
36454;BME280;22478;51.740;-1.314;2023-04-27T02:58:41;100452.33;;;2.60;100.00
36454;BME280;22478;51.740;-1.314;2023-04-27T03:01:09;100452.58;;;1.60;100.00
36454;BME280;22478;51.740;-1.314;2023-04-27T03:03:35;100445.47;;;2.17;100.00
36454;BME280;22478;51.740;-1.314;2023-04-27T03:06:03;100445.66;;;2.98;100.00
36454;BME280;22478;51.740;-1.314;2023-04-27T03:08:30;100442.72;;;2.55;100.00
36454;BME280;22478;51.740;-1.314;2023-04-27T03:10:57;100440.05;;;3.05;100.00
36454;BME280;22478;51.740;-1.314;2023-04-27T03:13:24;100436.57;;;2.91;100.00
36454;BME280;22478;51.740;-1.314;2023-04-27T03:15:51;100440.95;;;1.88;100.00
36454;BME280;22478;51.740;-1.314;2023-04-27T03:18:19;100444.56;;;2.38;98.39
36454;BME280;22478;51.740;-1.314;2023-04-27T03:20:46;100444.18;;;1.86;100.00
36454;BME280;22478;51.740;-1.314;2023-04-27T03:23:14;100439.68;;;2.26;100.00
36454;BME280;22478;51.740;-1.314;2023-04-27T03:25:41;100430.12;;;3.36;100.00
36454;BME280;22478;51.740;-1.314;2023-04-27T03:28:09;100426.73;;;2.09;100.00
36454;BME280;22478;51.740;-1.314;2023-04-27T03:30:38;100428.16;;;1.53;100.00
36454;BME280;22478;51.740;-1.314;2023-04-27T03:33:05;100430.63;;;1.10;100.00
36454;BME280;22478;51.740;-1.314;2023-04-27T03:35:32;100428.87;;;-0.59;100.00
36454;BME280;22478;51.740;-1.314;2023-04-27T03:38:00;100423.45;;;1.07;100.00
36454;BME280;22478;51.740;-1.314;2023-04-27T03:40:27;100417.12;;;1.69;100.00
36454;BME280;22478;51.740;-1.314;2023-04-27T03:42:55;100415.63;;;1.51;100.00
36454;BME280;22478;51.740;-1.314;2023-04-27T03:45:22;100417.93;;;1.05;100.00
36454;BME280;22478;51.740;-1.314;2023-04-27T03:47:49;100417.84;;;1.42;100.00
36454;BME280;22478;51.740;-1.314;2023-04-27T03:50:16;100413.06;;;1.05;100.00
36454;BME280;22478;51.740;-1.314;2023-04-27T03:52:43;100408.28;;;1.59;100.00
36454;BME280;22478;51.740;-1.314;2023-04-27T03:55:10;100415.56;;;0.57;100.00
36454;BME280;22478;51.740;-1.314;2023-04-27T03:57:37;100414.25;;;-0.19;100.00
36454;BME280;22478;51.740;-1.314;2023-04-27T04:00:05;100406.70;;;2.10;100.00
36454;BME280;22478;51.740;-1.314;2023-04-27T04:02:33;100409.34;;;1.72;100.00
36454;BME280;22478;51.740;-1.314;2023-04-27T04:05:01;100408.87;;;2.70;100.00
36454;BME280;22478;51.740;-1.314;2023-04-27T04:07:28;100408.44;;;2.92;100.00
36454;BME280;22478;51.740;-1.314;2023-04-27T04:09:55;100405.43;;;2.41;100.00
36454;BME280;22478;51.740;-1.314;2023-04-27T04:12:22;100400.94;;;1.65;100.00
36454;BME280;22478;51.740;-1.314;2023-04-27T04:14:49;100394.25;;;2.89;100.00
36454;BME280;22478;51.740;-1.314;2023-04-27T04:17:17;100393.19;;;2.84;100.00
36454;BME280;22478;51.740;-1.314;2023-04-27T04:19:44;100387.36;;;2.93;100.00
36454;BME280;22478;51.740;-1.314;2023-04-27T04:22:11;100382.82;;;4.42;99.93
36454;BME280;22478;51.740;-1.314;2023-04-27T04:24:38;100386.12;;;3.46;100.00
36454;BME280;22478;51.740;-1.314;2023-04-27T04:27:05;100381.82;;;3.60;100.00
36454;BME280;22478;51.740;-1.314;2023-04-27T04:29:33;100380.62;;;3.87;97.44
36454;BME280;22478;51.740;-1.314;2023-04-27T04:32:01;100376.99;;;4.26;97.08
36454;BME280;22478;51.740;-1.314;2023-04-27T04:34:28;100372.64;;;4.04;100.00
36454;BME280;22478;51.740;-1.314;2023-04-27T04:36:55;100371.14;;;3.87;99.39
36454;BME280;22478;51.740;-1.314;2023-04-27T04:39:23;100366.78;;;3.48;99.51
36454;BME280;22478;51.740;-1.314;2023-04-27T04:41:50;100364.34;;;3.61;100.00
36454;BME280;22478;51.740;-1.314;2023-04-27T04:44:17;100364.31;;;1.80;100.00
36454;BME280;22478;51.740;-1.314;2023-04-27T04:46:45;100358.97;;;2.78;100.00
36454;BME280;22478;51.740;-1.314;2023-04-27T04:49:12;100357.98;;;3.88;96.14
36454;BME280;22478;51.740;-1.314;2023-04-27T04:51:41;100358.66;;;4.93;92.78
36454;BME280;22478;51.740;-1.314;2023-04-27T04:54:09;100358.96;;;5.00;92.22
36454;BME280;22478;51.740;-1.314;2023-04-27T04:56:36;100360.48;;;4.43;91.60
36454;BME280;22478;51.740;-1.314;2023-04-27T04:59:03;100360.10;;;5.12;88.33
36454;BME280;22478;51.740;-1.314;2023-04-27T05:01:30;100361.45;;;5.38;87.80
36454;BME280;22478;51.740;-1.314;2023-04-27T05:03:58;100362.01;;;5.02;91.40
36454;BME280;22478;51.740;-1.314;2023-04-27T05:06:25;100362.44;;;4.50;89.83
36454;BME280;22478;51.740;-1.314;2023-04-27T05:08:52;100365.42;;;4.89;87.48
36454;BME280;22478;51.740;-1.314;2023-04-27T05:11:20;100364.89;;;4.74;88.11
36454;BME280;22478;51.740;-1.314;2023-04-27T05:13:47;100366.41;;;4.89;89.41
36454;BME280;22478;51.740;-1.314;2023-04-27T05:16:15;100368.59;;;4.40;88.79
36454;BME280;22478;51.740;-1.314;2023-04-27T05:18:42;100366.76;;;5.16;86.31
36454;BME280;22478;51.740;-1.314;2023-04-27T05:21:13;100366.59;;;3.60;92.36
36454;BME280;22478;51.740;-1.314;2023-04-27T05:23:41;100362.52;;;5.21;85.60
36454;BME280;22478;51.740;-1.314;2023-04-27T05:26:12;100361.08;;;6.13;80.80
36454;BME280;22478;51.740;-1.314;2023-04-27T05:28:39;100372.01;;;4.17;86.80
36454;BME280;22478;51.740;-1.314;2023-04-27T05:31:06;100375.79;;;3.74;93.63
36454;BME280;22478;51.740;-1.314;2023-04-27T05:33:34;100377.40;;;4.93;90.80
36454;BME280;22478;51.740;-1.314;2023-04-27T05:36:01;100373.78;;;4.72;88.27
36454;BME280;22478;51.740;-1.314;2023-04-27T05:38:28;100368.00;;;5.74;84.57
36454;BME280;22478;51.740;-1.314;2023-04-27T05:40:56;100368.86;;;3.93;92.05
36454;BME280;22478;51.740;-1.314;2023-04-27T05:43:24;100369.00;;;5.52;84.51
36454;BME280;22478;51.740;-1.314;2023-04-27T05:45:52;100369.07;;;4.94;83.38
36454;BME280;22478;51.740;-1.314;2023-04-27T05:48:20;100364.43;;;5.77;85.30
36454;BME280;22478;51.740;-1.314;2023-04-27T05:50:47;100364.36;;;5.25;86.78
36454;BME280;22478;51.740;-1.314;2023-04-27T05:53:15;100369.09;;;4.12;96.48
36454;BME280;22478;51.740;-1.314;2023-04-27T05:55:43;100373.05;;;4.05;97.42
36454;BME280;22478;51.740;-1.314;2023-04-27T05:58:10;100368.59;;;4.03;95.65
36454;BME280;22478;51.740;-1.314;2023-04-27T06:00:37;100369.07;;;1.93;100.00
36454;BME280;22478;51.740;-1.314;2023-04-27T06:03:05;100359.61;;;3.98;97.52
36454;BME280;22478;51.740;-1.314;2023-04-27T06:05:33;100356.54;;;4.67;91.74
36454;BME280;22478;51.740;-1.314;2023-04-27T06:08:00;100355.05;;;4.87;98.26
36454;BME280;22478;51.740;-1.314;2023-04-27T06:10:28;100349.84;;;3.98;97.57
36454;BME280;22478;51.740;-1.314;2023-04-27T06:12:55;100352.09;;;4.17;98.30
36454;BME280;22478;51.740;-1.314;2023-04-27T06:15:23;100358.01;;;4.11;100.00
36454;BME280;22478;51.740;-1.314;2023-04-27T06:17:50;100360.41;;;3.73;100.00
36454;BME280;22478;51.740;-1.314;2023-04-27T06:20:17;100359.09;;;3.08;100.00
36454;BME280;22478;51.740;-1.314;2023-04-27T06:22:45;100354.86;;;3.27;100.00
36454;BME280;22478;51.740;-1.314;2023-04-27T06:25:12;100354.98;;;2.09;100.00
36454;BME280;22478;51.740;-1.314;2023-04-27T06:27:40;100346.54;;;2.85;100.00
36454;BME280;22478;51.740;-1.314;2023-04-27T06:30:08;100350.96;;;3.49;100.00
36454;BME280;22478;51.740;-1.314;2023-04-27T06:32:36;100353.42;;;2.13;100.00
36454;BME280;22478;51.740;-1.314;2023-04-27T06:35:03;100353.57;;;2.47;100.00
36454;BME280;22478;51.740;-1.314;2023-04-27T06:37:31;100346.05;;;3.37;100.00
36454;BME280;22478;51.740;-1.314;2023-04-27T06:39:58;100341.03;;;3.46;100.00
36454;BME280;22478;51.740;-1.314;2023-04-27T06:42:26;100341.26;;;3.14;100.00
36454;BME280;22478;51.740;-1.314;2023-04-27T06:44:53;100340.42;;;4.20;100.00
36454;BME280;22478;51.740;-1.314;2023-04-27T06:47:20;100343.70;;;3.53;100.00
36454;BME280;22478;51.740;-1.314;2023-04-27T06:49:48;100345.61;;;4.05;100.00
36454;BME280;22478;51.740;-1.314;2023-04-27T06:52:16;100347.65;;;0.76;100.00
36454;BME280;22478;51.740;-1.314;2023-04-27T06:54:43;100337.76;;;3.48;100.00
36454;BME280;22478;51.740;-1.314;2023-04-27T06:57:10;100341.14;;;2.88;100.00
36454;BME280;22478;51.740;-1.314;2023-04-27T06:59:37;100340.43;;;3.28;100.00
36454;BME280;22478;51.740;-1.314;2023-04-27T07:02:05;100350.76;;;1.86;100.00
36454;BME280;22478;51.740;-1.314;2023-04-27T07:04:33;100347.85;;;4.58;100.00
36454;BME280;22478;51.740;-1.314;2023-04-27T07:07:01;100355.51;;;3.75;100.00
36454;BME280;22478;51.740;-1.314;2023-04-27T07:09:28;100364.92;;;1.90;100.00
36454;BME280;22478;51.740;-1.314;2023-04-27T07:11:55;100361.07;;;2.89;100.00
36454;BME280;22478;51.740;-1.314;2023-04-27T07:14:22;100367.98;;;1.72;100.00
36454;BME280;22478;51.740;-1.314;2023-04-27T07:16:50;100357.78;;;2.68;100.00
36454;BME280;22478;51.740;-1.314;2023-04-27T07:19:17;100351.69;;;3.18;100.00
36454;BME280;22478;51.740;-1.314;2023-04-27T07:21:44;100358.26;;;2.65;100.00
36454;BME280;22478;51.740;-1.314;2023-04-27T07:24:10;100360.05;;;2.70;100.00
36454;BME280;22478;51.740;-1.314;2023-04-27T07:26:38;100354.52;;;2.42;100.00
36454;BME280;22478;51.740;-1.314;2023-04-27T07:29:05;100350.29;;;2.87;100.00
36454;BME280;22478;51.740;-1.314;2023-04-27T07:31:32;100356.51;;;1.22;100.00
36454;BME280;22478;51.740;-1.314;2023-04-27T07:34:00;100351.66;;;3.09;100.00
36454;BME280;22478;51.740;-1.314;2023-04-27T07:36:27;100351.15;;;2.05;100.00
36454;BME280;22478;51.740;-1.314;2023-04-27T07:38:54;100347.02;;;1.63;100.00
36454;BME280;22478;51.740;-1.314;2023-04-27T07:41:22;100348.59;;;3.16;100.00
36454;BME280;22478;51.740;-1.314;2023-04-27T07:43:49;100349.41;;;2.49;100.00
36454;BME280;22478;51.740;-1.314;2023-04-27T07:46:16;100353.18;;;2.45;100.00
36454;BME280;22478;51.740;-1.314;2023-04-27T07:48:44;100355.13;;;3.41;100.00
36454;BME280;22478;51.740;-1.314;2023-04-27T07:51:11;100358.77;;;2.35;100.00
36454;BME280;22478;51.740;-1.314;2023-04-27T07:53:39;100362.50;;;3.50;100.00
36454;BME280;22478;51.740;-1.314;2023-04-27T07:56:06;100365.21;;;2.94;100.00
36454;BME280;22478;51.740;-1.314;2023-04-27T07:58:34;100363.91;;;2.88;100.00
36454;BME280;22478;51.740;-1.314;2023-04-27T08:01:01;100363.93;;;2.59;100.00
36454;BME280;22478;51.740;-1.314;2023-04-27T08:03:29;100360.96;;;2.39;100.00
36454;BME280;22478;51.740;-1.314;2023-04-27T08:05:56;100353.73;;;2.77;100.00
36454;BME280;22478;51.740;-1.314;2023-04-27T08:08:23;100344.78;;;2.99;100.00
36454;BME280;22478;51.740;-1.314;2023-04-27T08:10:51;100345.60;;;2.76;100.00
36454;BME280;22478;51.740;-1.314;2023-04-27T08:13:18;100342.16;;;2.15;100.00
36454;BME280;22478;51.740;-1.314;2023-04-27T08:15:45;100332.03;;;2.35;100.00
36454;BME280;22478;51.740;-1.314;2023-04-27T08:18:13;100328.77;;;3.26;100.00
36454;BME280;22478;51.740;-1.314;2023-04-27T08:20:40;100329.10;;;2.45;100.00
36454;BME280;22478;51.740;-1.314;2023-04-27T08:23:07;100328.89;;;2.84;100.00
36454;BME280;22478;51.740;-1.314;2023-04-27T08:25:35;100328.96;;;1.97;100.00
36454;BME280;22478;51.740;-1.314;2023-04-27T08:28:02;100321.22;;;3.04;100.00
36454;BME280;22478;51.740;-1.314;2023-04-27T08:30:29;100322.55;;;2.18;100.00
36454;BME280;22478;51.740;-1.314;2023-04-27T08:32:57;100321.42;;;3.41;100.00
36454;BME280;22478;51.740;-1.314;2023-04-27T08:35:24;100310.23;;;2.61;100.00
36454;BME280;22478;51.740;-1.314;2023-04-27T08:37:52;100303.44;;;2.72;100.00
36454;BME280;22478;51.740;-1.314;2023-04-27T08:40:19;100303.11;;;3.32;100.00
36454;BME280;22478;51.740;-1.314;2023-04-27T08:42:54;100303.21;;;3.78;100.00
36454;BME280;22478;51.740;-1.314;2023-04-27T08:45:22;100301.99;;;3.07;100.00
36454;BME280;22478;51.740;-1.314;2023-04-27T08:47:49;100296.20;;;2.89;100.00
36454;BME280;22478;51.740;-1.314;2023-04-27T08:50:17;100286.13;;;3.63;100.00
36454;BME280;22478;51.740;-1.314;2023-04-27T08:52:45;100283.59;;;3.30;100.00
36454;BME280;22478;51.740;-1.314;2023-04-27T08:55:13;100284.01;;;2.69;100.00
36454;BME280;22478;51.740;-1.314;2023-04-27T08:57:40;100290.26;;;3.01;100.00
36454;BME280;22478;51.740;-1.314;2023-04-27T09:00:08;100282.60;;;3.58;100.00
36454;BME280;22478;51.740;-1.314;2023-04-27T09:02:35;100288.17;;;3.36;100.00
36454;BME280;22478;51.740;-1.314;2023-04-27T09:05:03;100292.45;;;3.02;100.00
36454;BME280;22478;51.740;-1.314;2023-04-27T09:07:31;100300.91;;;3.90;100.00
36454;BME280;22478;51.740;-1.314;2023-04-27T09:10:01;100300.46;;;3.59;100.00
36454;BME280;22478;51.740;-1.314;2023-04-27T09:12:29;100303.12;;;3.15;100.00
36454;BME280;22478;51.740;-1.314;2023-04-27T09:14:56;100301.37;;;2.71;100.00
36454;BME280;22478;51.740;-1.314;2023-04-27T09:17:24;100287.13;;;3.72;100.00
36454;BME280;22478;51.740;-1.314;2023-04-27T09:19:51;100287.61;;;4.50;100.00
36454;BME280;22478;51.740;-1.314;2023-04-27T09:22:18;100291.68;;;3.60;100.00
36454;BME280;22478;51.740;-1.314;2023-04-27T09:24:49;100290.97;;;3.95;100.00
36454;BME280;22478;51.740;-1.314;2023-04-27T09:27:18;100288.48;;;3.99;100.00
36454;BME280;22478;51.740;-1.314;2023-04-27T09:29:45;100288.90;;;4.05;100.00
36454;BME280;22478;51.740;-1.314;2023-04-27T09:32:14;100285.71;;;2.57;100.00
36454;BME280;22478;51.740;-1.314;2023-04-27T09:34:42;100276.70;;;3.40;100.00
36454;BME280;22478;51.740;-1.314;2023-04-27T09:37:10;100277.37;;;4.14;100.00
36454;BME280;22478;51.740;-1.314;2023-04-27T09:39:38;100270.88;;;4.50;100.00
36454;BME280;22478;51.740;-1.314;2023-04-27T09:42:06;100267.27;;;3.79;100.00
36454;BME280;22478;51.740;-1.314;2023-04-27T09:44:34;100267.39;;;4.36;100.00
36454;BME280;22478;51.740;-1.314;2023-04-27T09:47:01;100272.32;;;3.75;100.00
36454;BME280;22478;51.740;-1.314;2023-04-27T09:49:28;100271.77;;;4.16;100.00
36454;BME280;22478;51.740;-1.314;2023-04-27T09:51:56;100261.50;;;4.92;100.00
36454;BME280;22478;51.740;-1.314;2023-04-27T09:54:26;100258.13;;;4.00;100.00
36454;BME280;22478;51.740;-1.314;2023-04-27T09:57:05;100248.24;;;4.72;100.00
36454;BME280;22478;51.740;-1.314;2023-04-27T09:59:57;100236.41;;;4.83;100.00
36454;BME280;22478;51.740;-1.314;2023-04-27T10:02:29;100230.51;;;5.93;100.00
36454;BME280;22478;51.740;-1.314;2023-04-27T10:05:18;100238.28;;;5.26;100.00
36454;BME280;22478;51.740;-1.314;2023-04-27T10:07:51;100239.36;;;5.42;100.00
36454;BME280;22478;51.740;-1.314;2023-04-27T10:10:18;100233.71;;;4.53;100.00
36454;BME280;22478;51.740;-1.314;2023-04-27T10:12:55;100227.59;;;4.58;100.00
36454;BME280;22478;51.740;-1.314;2023-04-27T10:15:26;100241.45;;;4.73;100.00
36454;BME280;22478;51.740;-1.314;2023-04-27T10:17:53;100238.51;;;4.07;100.00
36454;BME280;22478;51.740;-1.314;2023-04-27T10:20:28;100230.83;;;5.35;100.00
36454;BME280;22478;51.740;-1.314;2023-04-27T10:22:57;100238.45;;;4.84;100.00
36454;BME280;22478;51.740;-1.314;2023-04-27T10:25:26;100222.48;;;4.37;100.00
36454;BME280;22478;51.740;-1.314;2023-04-27T10:27:55;100216.54;;;4.54;100.00
36454;BME280;22478;51.740;-1.314;2023-04-27T10:30:23;100210.73;;;5.58;100.00
36454;BME280;22478;51.740;-1.314;2023-04-27T10:32:52;100210.15;;;4.53;100.00
36454;BME280;22478;51.740;-1.314;2023-04-27T10:35:21;100208.20;;;4.32;100.00
36454;BME280;22478;51.740;-1.314;2023-04-27T10:37:49;100202.88;;;4.61;100.00
36454;BME280;22478;51.740;-1.314;2023-04-27T10:40:16;100196.76;;;5.33;100.00
36454;BME280;22478;51.740;-1.314;2023-04-27T10:42:45;100191.74;;;4.45;100.00
36454;BME280;22478;51.740;-1.314;2023-04-27T10:45:13;100183.75;;;5.77;100.00
36454;BME280;22478;51.740;-1.314;2023-04-27T10:47:41;100181.76;;;6.49;100.00
36454;BME280;22478;51.740;-1.314;2023-04-27T10:50:10;100178.52;;;5.86;100.00
36454;BME280;22478;51.740;-1.314;2023-04-27T10:52:40;100171.19;;;5.29;100.00
36454;BME280;22478;51.740;-1.314;2023-04-27T10:55:16;100171.43;;;5.15;100.00
36454;BME280;22478;51.740;-1.314;2023-04-27T10:57:47;100177.04;;;5.10;100.00
36454;BME280;22478;51.740;-1.314;2023-04-27T11:00:15;100174.56;;;6.28;100.00
36454;BME280;22478;51.740;-1.314;2023-04-27T11:02:47;100171.84;;;6.21;100.00
36454;BME280;22478;51.740;-1.314;2023-04-27T11:05:17;100161.95;;;6.03;100.00
36454;BME280;22478;51.740;-1.314;2023-04-27T11:07:45;100164.27;;;5.78;100.00
36454;BME280;22478;51.740;-1.314;2023-04-27T11:10:17;100165.04;;;5.93;100.00
36454;BME280;22478;51.740;-1.314;2023-04-27T11:12:45;100163.84;;;5.92;100.00
36454;BME280;22478;51.740;-1.314;2023-04-27T11:15:13;100165.25;;;5.75;100.00
36454;BME280;22478;51.740;-1.314;2023-04-27T11:17:40;100171.80;;;5.88;100.00
36454;BME280;22478;51.740;-1.314;2023-04-27T11:20:08;100155.02;;;6.57;100.00
36454;BME280;22478;51.740;-1.314;2023-04-27T11:22:44;100154.36;;;6.19;100.00
36454;BME280;22478;51.740;-1.314;2023-04-27T11:25:12;100154.66;;;4.95;100.00
36454;BME280;22478;51.740;-1.314;2023-04-27T11:27:39;100144.24;;;7.31;95.99
36454;BME280;22478;51.740;-1.314;2023-04-27T11:30:18;100138.06;;;7.52;95.72
36454;BME280;22478;51.740;-1.314;2023-04-27T11:32:46;100127.26;;;7.03;98.82
36454;BME280;22478;51.740;-1.314;2023-04-27T11:35:13;100120.97;;;7.62;94.21
36454;BME280;22478;51.740;-1.314;2023-04-27T11:37:40;100108.92;;;6.64;97.42
36454;BME280;22478;51.740;-1.314;2023-04-27T11:40:09;100100.94;;;7.32;99.04
36454;BME280;22478;51.740;-1.314;2023-04-27T11:42:39;100087.68;;;7.24;99.54
36454;BME280;22478;51.740;-1.314;2023-04-27T11:45:09;100090.86;;;8.03;96.16
36454;BME280;22478;51.740;-1.314;2023-04-27T11:47:37;100088.83;;;6.49;100.00
36454;BME280;22478;51.740;-1.314;2023-04-27T11:50:05;100077.40;;;6.78;100.00
36454;BME280;22478;51.740;-1.314;2023-04-27T11:52:34;100071.34;;;7.38;99.03
36454;BME280;22478;51.740;-1.314;2023-04-27T11:55:02;100071.68;;;8.44;94.17
36454;BME280;22478;51.740;-1.314;2023-04-27T11:57:31;100053.39;;;9.51;90.49
36454;BME280;22478;51.740;-1.314;2023-04-27T11:59:59;100057.21;;;9.95;86.15
36454;BME280;22478;51.740;-1.314;2023-04-27T12:02:27;100040.03;;;10.72;81.20
36454;BME280;22478;51.740;-1.314;2023-04-27T12:04:54;100055.43;;;10.28;80.02
36454;BME280;22478;51.740;-1.314;2023-04-27T12:07:22;100051.55;;;9.50;81.03
36454;BME280;22478;51.740;-1.314;2023-04-27T12:09:49;100054.74;;;10.65;78.45
36454;BME280;22478;51.740;-1.314;2023-04-27T12:12:16;100036.16;;;10.39;76.92
36454;BME280;22478;51.740;-1.314;2023-04-27T12:14:44;100048.90;;;9.88;78.36
36454;BME280;22478;51.740;-1.314;2023-04-27T12:17:11;100058.30;;;7.95;86.08
36454;BME280;22478;51.740;-1.314;2023-04-27T12:19:38;100053.31;;;8.12;89.97
36454;BME280;22478;51.740;-1.314;2023-04-27T12:22:06;100051.20;;;8.51;94.62
36454;BME280;22478;51.740;-1.314;2023-04-27T12:24:34;100038.02;;;8.59;88.90
36454;BME280;22478;51.740;-1.314;2023-04-27T12:27:01;100047.25;;;7.60;92.94
36454;BME280;22478;51.740;-1.314;2023-04-27T12:29:29;100044.39;;;7.36;98.03
36454;BME280;22478;51.740;-1.314;2023-04-27T12:31:57;100040.78;;;6.76;100.00
36454;BME280;22478;51.740;-1.314;2023-04-27T12:34:24;100041.38;;;6.66;99.33
36454;BME280;22478;51.740;-1.314;2023-04-27T12:36:51;100044.47;;;7.60;93.81
36454;BME280;22478;51.740;-1.314;2023-04-27T12:39:20;100063.84;;;6.97;97.57
36454;BME280;22478;51.740;-1.314;2023-04-27T12:41:48;100051.43;;;6.48;100.00
36454;BME280;22478;51.740;-1.314;2023-04-27T12:44:17;100058.44;;;6.98;98.81
36454;BME280;22478;51.740;-1.314;2023-04-27T12:46:45;100054.44;;;6.87;100.00